sensor_id;sensor_type;location;lat;lon;timestamp;P1;durP1;ratioP1;P2;durP2;ratioP2
55314;SDS011;41619;42.816;23.226;2022-12-15T00:00:04;39.05;;;20.08;;
55314;SDS011;41619;42.816;23.226;2022-12-15T00:02:49;33.60;;;18.88;;
55314;SDS011;41619;42.816;23.226;2022-12-15T00:05:33;34.42;;;19.52;;
55314;SDS011;41619;42.816;23.226;2022-12-15T00:08:17;29.65;;;19.58;;
55314;SDS011;41619;42.816;23.226;2022-12-15T00:11:02;35.47;;;21.48;;
55314;SDS011;41619;42.816;23.226;2022-12-15T00:13:46;34.83;;;21.65;;
55314;SDS011;41619;42.816;23.226;2022-12-15T00:16:30;37.65;;;20.63;;
55314;SDS011;41619;42.816;23.226;2022-12-15T00:19:13;34.90;;;19.48;;
55314;SDS011;41619;42.816;23.226;2022-12-15T00:21:57;33.47;;;19.70;;
55314;SDS011;41619;42.816;23.226;2022-12-15T00:24:41;34.60;;;19.20;;
55314;SDS011;41619;42.816;23.226;2022-12-15T00:27:25;37.60;;;20.98;;
55314;SDS011;41619;42.816;23.226;2022-12-15T00:30:09;36.45;;;20.35;;
55314;SDS011;41619;42.816;23.226;2022-12-15T00:32:54;39.20;;;20.45;;
55314;SDS011;41619;42.816;23.226;2022-12-15T00:35:37;36.92;;;21.70;;
55314;SDS011;41619;42.816;23.226;2022-12-15T00:38:21;34.70;;;20.30;;
55314;SDS011;41619;42.816;23.226;2022-12-15T00:41:05;28.23;;;17.50;;
55314;SDS011;41619;42.816;23.226;2022-12-15T00:43:32;34.33;;;18.35;;
55314;SDS011;41619;42.816;23.226;2022-12-15T00:45:59;43.20;;;20.33;;
55314;SDS011;41619;42.816;23.226;2022-12-15T00:48:44;33.10;;;19.13;;
55314;SDS011;41619;42.816;23.226;2022-12-15T00:51:09;35.30;;;20.83;;
55314;SDS011;41619;42.816;23.226;2022-12-15T00:53:35;36.22;;;21.63;;
55314;SDS011;41619;42.816;23.226;2022-12-15T00:56:19;37.75;;;20.95;;
55314;SDS011;41619;42.816;23.226;2022-12-15T00:59:03;35.35;;;20.88;;
55314;SDS011;41619;42.816;23.226;2022-12-15T01:01:47;36.78;;;20.30;;
55314;SDS011;41619;42.816;23.226;2022-12-15T01:04:31;36.58;;;21.05;;
55314;SDS011;41619;42.816;23.226;2022-12-15T01:07:15;36.17;;;20.52;;
55314;SDS011;41619;42.816;23.226;2022-12-15T01:09:59;43.03;;;23.70;;
55314;SDS011;41619;42.816;23.226;2022-12-15T01:12:43;41.03;;;22.88;;
55314;SDS011;41619;42.816;23.226;2022-12-15T01:15:28;45.30;;;21.95;;
55314;SDS011;41619;42.816;23.226;2022-12-15T01:18:11;39.15;;;23.40;;
55314;SDS011;41619;42.816;23.226;2022-12-15T01:20:56;40.20;;;20.60;;
55314;SDS011;41619;42.816;23.226;2022-12-15T01:23:23;38.03;;;21.67;;
55314;SDS011;41619;42.816;23.226;2022-12-15T01:25:49;36.75;;;21.17;;
55314;SDS011;41619;42.816;23.226;2022-12-15T01:28:19;40.05;;;22.98;;
55314;SDS011;41619;42.816;23.226;2022-12-15T01:30:45;37.08;;;21.65;;
55314;SDS011;41619;42.816;23.226;2022-12-15T01:33:12;42.67;;;22.40;;
55314;SDS011;41619;42.816;23.226;2022-12-15T01:35:38;36.05;;;20.25;;
55314;SDS011;41619;42.816;23.226;2022-12-15T01:38:04;37.85;;;21.65;;
55314;SDS011;41619;42.816;23.226;2022-12-15T01:40:30;36.92;;;20.92;;
55314;SDS011;41619;42.816;23.226;2022-12-15T01:43:11;35.10;;;19.42;;
55314;SDS011;41619;42.816;23.226;2022-12-15T01:45:46;38.67;;;21.63;;
55314;SDS011;41619;42.816;23.226;2022-12-15T01:48:34;36.53;;;19.83;;
55314;SDS011;41619;42.816;23.226;2022-12-15T01:51:09;33.97;;;19.20;;
55314;SDS011;41619;42.816;23.226;2022-12-15T01:53:58;39.00;;;20.40;;
55314;SDS011;41619;42.816;23.226;2022-12-15T01:56:25;35.10;;;20.75;;
55314;SDS011;41619;42.816;23.226;2022-12-15T01:58:54;35.45;;;19.48;;
55314;SDS011;41619;42.816;23.226;2022-12-15T02:01:23;38.45;;;22.23;;
55314;SDS011;41619;42.816;23.226;2022-12-15T02:03:48;40.17;;;22.02;;
55314;SDS011;41619;42.816;23.226;2022-12-15T02:06:14;35.08;;;21.70;;
55314;SDS011;41619;42.816;23.226;2022-12-15T02:08:42;37.30;;;20.35;;
55314;SDS011;41619;42.816;23.226;2022-12-15T02:14:04;38.13;;;20.33;;
55314;SDS011;41619;42.816;23.226;2022-12-15T02:16:54;36.47;;;20.15;;
55314;SDS011;41619;42.816;23.226;2022-12-15T02:24:37;38.50;;;20.67;;
55314;SDS011;41619;42.816;23.226;2022-12-15T02:29:39;34.95;;;18.73;;
55314;SDS011;41619;42.816;23.226;2022-12-15T02:32:30;34.05;;;19.73;;
55314;SDS011;41619;42.816;23.226;2022-12-15T02:35:07;33.30;;;19.55;;
55314;SDS011;41619;42.816;23.226;2022-12-15T02:37:39;29.88;;;17.73;;
55314;SDS011;41619;42.816;23.226;2022-12-15T02:40:06;29.13;;;17.95;;
55314;SDS011;41619;42.816;23.226;2022-12-15T02:42:34;30.48;;;17.52;;
55314;SDS011;41619;42.816;23.226;2022-12-15T02:45:16;29.15;;;16.85;;
55314;SDS011;41619;42.816;23.226;2022-12-15T02:58:45;25.00;;;15.40;;
55314;SDS011;41619;42.816;23.226;2022-12-15T03:01:35;22.80;;;13.85;;
55314;SDS011;41619;42.816;23.226;2022-12-15T03:04:09;22.23;;;14.18;;
55314;SDS011;41619;42.816;23.226;2022-12-15T03:06:36;23.65;;;14.80;;
55314;SDS011;41619;42.816;23.226;2022-12-15T03:09:02;28.20;;;14.30;;
55314;SDS011;41619;42.816;23.226;2022-12-15T03:11:27;23.75;;;14.93;;
55314;SDS011;41619;42.816;23.226;2022-12-15T03:13:53;25.80;;;14.55;;
55314;SDS011;41619;42.816;23.226;2022-12-15T03:16:19;23.60;;;14.65;;
55314;SDS011;41619;42.816;23.226;2022-12-15T03:18:44;25.08;;;15.02;;
55314;SDS011;41619;42.816;23.226;2022-12-15T03:21:11;22.92;;;14.23;;
55314;SDS011;41619;42.816;23.226;2022-12-15T03:23:36;17.65;;;11.30;;
55314;SDS011;41619;42.816;23.226;2022-12-15T03:26:02;17.25;;;11.02;;
55314;SDS011;41619;42.816;23.226;2022-12-15T03:28:28;15.52;;;10.10;;
55314;SDS011;41619;42.816;23.226;2022-12-15T03:30:53;13.98;;;10.25;;
55314;SDS011;41619;42.816;23.226;2022-12-15T03:33:20;17.15;;;10.80;;
55314;SDS011;41619;42.816;23.226;2022-12-15T03:35:46;18.17;;;11.73;;
55314;SDS011;41619;42.816;23.226;2022-12-15T03:38:11;19.67;;;11.73;;
55314;SDS011;41619;42.816;23.226;2022-12-15T03:40:37;16.23;;;10.80;;
55314;SDS011;41619;42.816;23.226;2022-12-15T03:43:02;10.85;;;8.80;;
55314;SDS011;41619;42.816;23.226;2022-12-15T03:45:27;10.45;;;7.80;;
55314;SDS011;41619;42.816;23.226;2022-12-15T03:47:54;9.80;;;7.32;;
55314;SDS011;41619;42.816;23.226;2022-12-15T03:50:21;9.63;;;6.22;;
55314;SDS011;41619;42.816;23.226;2022-12-15T03:52:48;12.02;;;7.50;;
55314;SDS011;41619;42.816;23.226;2022-12-15T03:55:18;11.75;;;6.95;;
55314;SDS011;41619;42.816;23.226;2022-12-15T03:57:44;10.45;;;6.72;;
55314;SDS011;41619;42.816;23.226;2022-12-15T04:00:10;10.07;;;7.13;;
55314;SDS011;41619;42.816;23.226;2022-12-15T04:02:38;11.45;;;7.50;;
55314;SDS011;41619;42.816;23.226;2022-12-15T04:05:04;8.35;;;6.32;;
55314;SDS011;41619;42.816;23.226;2022-12-15T04:07:30;9.10;;;6.53;;
55314;SDS011;41619;42.816;23.226;2022-12-15T04:09:55;9.65;;;7.20;;
55314;SDS011;41619;42.816;23.226;2022-12-15T04:12:20;19.73;;;10.68;;
55314;SDS011;41619;42.816;23.226;2022-12-15T04:14:46;15.57;;;9.43;;
55314;SDS011;41619;42.816;23.226;2022-12-15T04:17:11;8.88;;;6.78;;
55314;SDS011;41619;42.816;23.226;2022-12-15T04:19:37;17.20;;;10.32;;
55314;SDS011;41619;42.816;23.226;2022-12-15T04:22:21;18.70;;;10.65;;
55314;SDS011;41619;42.816;23.226;2022-12-15T04:24:47;16.67;;;9.70;;
55314;SDS011;41619;42.816;23.226;2022-12-15T04:27:30;16.05;;;9.27;;
55314;SDS011;41619;42.816;23.226;2022-12-15T04:30:14;10.45;;;7.80;;
55314;SDS011;41619;42.816;23.226;2022-12-15T04:32:58;10.30;;;6.90;;
55314;SDS011;41619;42.816;23.226;2022-12-15T04:35:43;10.50;;;7.10;;
55314;SDS011;41619;42.816;23.226;2022-12-15T04:38:27;10.63;;;7.50;;
55314;SDS011;41619;42.816;23.226;2022-12-15T04:41:12;11.93;;;7.93;;
55314;SDS011;41619;42.816;23.226;2022-12-15T04:43:57;15.63;;;8.55;;
55314;SDS011;41619;42.816;23.226;2022-12-15T04:46:41;11.15;;;7.70;;
55314;SDS011;41619;42.816;23.226;2022-12-15T04:49:25;12.20;;;8.75;;
55314;SDS011;41619;42.816;23.226;2022-12-15T04:52:09;66.93;;;21.00;;
55314;SDS011;41619;42.816;23.226;2022-12-15T04:54:53;20.20;;;11.70;;
55314;SDS011;41619;42.816;23.226;2022-12-15T04:57:37;22.27;;;11.95;;
55314;SDS011;41619;42.816;23.226;2022-12-15T05:00:21;80.20;;;33.17;;
55314;SDS011;41619;42.816;23.226;2022-12-15T05:03:05;65.43;;;27.58;;
55314;SDS011;41619;42.816;23.226;2022-12-15T05:05:50;198.10;;;68.07;;
55314;SDS011;41619;42.816;23.226;2022-12-15T05:08:34;130.95;;;47.63;;
55314;SDS011;41619;42.816;23.226;2022-12-15T05:11:18;41.35;;;19.88;;
55314;SDS011;41619;42.816;23.226;2022-12-15T05:14:02;60.22;;;27.52;;
55314;SDS011;41619;42.816;23.226;2022-12-15T05:16:47;45.97;;;23.45;;
55314;SDS011;41619;42.816;23.226;2022-12-15T05:19:31;72.43;;;32.67;;
55314;SDS011;41619;42.816;23.226;2022-12-15T05:22:15;410.48;;;128.02;;
55314;SDS011;41619;42.816;23.226;2022-12-15T05:24:58;112.20;;;46.72;;
55314;SDS011;41619;42.816;23.226;2022-12-15T05:27:42;100.00;;;37.17;;
55314;SDS011;41619;42.816;23.226;2022-12-15T05:30:26;400.80;;;110.68;;
55314;SDS011;41619;42.816;23.226;2022-12-15T05:33:10;66.05;;;30.23;;
55314;SDS011;41619;42.816;23.226;2022-12-15T05:35:36;110.65;;;42.65;;
55314;SDS011;41619;42.816;23.226;2022-12-15T05:38:02;35.13;;;19.83;;
55314;SDS011;41619;42.816;23.226;2022-12-15T05:40:28;91.70;;;35.97;;
55314;SDS011;41619;42.816;23.226;2022-12-15T05:42:56;42.60;;;20.73;;
55314;SDS011;41619;42.816;23.226;2022-12-15T05:45:23;78.07;;;31.98;;
55314;SDS011;41619;42.816;23.226;2022-12-15T05:47:52;44.30;;;22.40;;
55314;SDS011;41619;42.816;23.226;2022-12-15T05:50:18;45.63;;;21.27;;
55314;SDS011;41619;42.816;23.226;2022-12-15T05:52:45;46.47;;;23.42;;
55314;SDS011;41619;42.816;23.226;2022-12-15T05:55:10;51.20;;;23.40;;
55314;SDS011;41619;42.816;23.226;2022-12-15T05:57:36;47.35;;;23.70;;
55314;SDS011;41619;42.816;23.226;2022-12-15T06:00:02;57.90;;;25.92;;
55314;SDS011;41619;42.816;23.226;2022-12-15T06:02:28;57.88;;;25.63;;
55314;SDS011;41619;42.816;23.226;2022-12-15T06:04:54;51.97;;;24.88;;
55314;SDS011;41619;42.816;23.226;2022-12-15T06:07:19;76.60;;;32.88;;
55314;SDS011;41619;42.816;23.226;2022-12-15T06:09:44;410.05;;;121.88;;
55314;SDS011;41619;42.816;23.226;2022-12-15T06:12:10;265.90;;;86.47;;
55314;SDS011;41619;42.816;23.226;2022-12-15T06:14:35;264.58;;;87.38;;
55314;SDS011;41619;42.816;23.226;2022-12-15T06:17:01;180.05;;;66.90;;
55314;SDS011;41619;42.816;23.226;2022-12-15T06:19:26;74.95;;;32.53;;
55314;SDS011;41619;42.816;23.226;2022-12-15T06:21:52;55.80;;;24.73;;
55314;SDS011;41619;42.816;23.226;2022-12-15T06:24:17;40.30;;;21.58;;
55314;SDS011;41619;42.816;23.226;2022-12-15T06:26:43;41.50;;;24.30;;
55314;SDS011;41619;42.816;23.226;2022-12-15T06:29:09;32.92;;;21.00;;
55314;SDS011;41619;42.816;23.226;2022-12-15T06:31:36;47.85;;;29.65;;
55314;SDS011;41619;42.816;23.226;2022-12-15T06:34:02;44.85;;;26.55;;
55314;SDS011;41619;42.816;23.226;2022-12-15T06:36:29;37.30;;;23.00;;
55314;SDS011;41619;42.816;23.226;2022-12-15T06:38:57;35.63;;;22.33;;
55314;SDS011;41619;42.816;23.226;2022-12-15T06:41:24;38.00;;;24.00;;
55314;SDS011;41619;42.816;23.226;2022-12-15T06:43:55;66.28;;;35.90;;
55314;SDS011;41619;42.816;23.226;2022-12-15T06:46:22;47.97;;;25.95;;
55314;SDS011;41619;42.816;23.226;2022-12-15T06:48:48;49.30;;;24.80;;
55314;SDS011;41619;42.816;23.226;2022-12-15T06:51:14;47.25;;;25.40;;
55314;SDS011;41619;42.816;23.226;2022-12-15T06:53:40;48.58;;;27.45;;
55314;SDS011;41619;42.816;23.226;2022-12-15T06:56:07;49.00;;;26.75;;
55314;SDS011;41619;42.816;23.226;2022-12-15T06:58:40;52.58;;;27.20;;
55314;SDS011;41619;42.816;23.226;2022-12-15T07:01:06;67.30;;;33.70;;
55314;SDS011;41619;42.816;23.226;2022-12-15T07:03:32;96.38;;;44.13;;
55314;SDS011;41619;42.816;23.226;2022-12-15T07:06:02;68.88;;;33.72;;
55314;SDS011;41619;42.816;23.226;2022-12-15T07:08:32;46.85;;;24.98;;
55314;SDS011;41619;42.816;23.226;2022-12-15T07:10:58;42.92;;;24.25;;
55314;SDS011;41619;42.816;23.226;2022-12-15T07:13:26;31.55;;;20.45;;
55314;SDS011;41619;42.816;23.226;2022-12-15T07:15:51;38.72;;;23.25;;
55314;SDS011;41619;42.816;23.226;2022-12-15T07:18:17;32.42;;;20.13;;
55314;SDS011;41619;42.816;23.226;2022-12-15T07:20:43;33.55;;;20.77;;
55314;SDS011;41619;42.816;23.226;2022-12-15T07:23:10;31.17;;;20.48;;
55314;SDS011;41619;42.816;23.226;2022-12-15T07:25:35;34.28;;;22.65;;
55314;SDS011;41619;42.816;23.226;2022-12-15T07:28:01;36.10;;;22.88;;
55314;SDS011;41619;42.816;23.226;2022-12-15T07:30:27;34.17;;;21.70;;
55314;SDS011;41619;42.816;23.226;2022-12-15T07:32:52;30.85;;;20.35;;
55314;SDS011;41619;42.816;23.226;2022-12-15T07:35:17;36.95;;;23.90;;
55314;SDS011;41619;42.816;23.226;2022-12-15T07:37:43;40.00;;;22.33;;
55314;SDS011;41619;42.816;23.226;2022-12-15T07:40:08;41.97;;;24.05;;
55314;SDS011;41619;42.816;23.226;2022-12-15T07:42:34;55.28;;;26.63;;
55314;SDS011;41619;42.816;23.226;2022-12-15T07:45:00;57.63;;;33.35;;
55314;SDS011;41619;42.816;23.226;2022-12-15T07:47:25;54.53;;;31.52;;
55314;SDS011;41619;42.816;23.226;2022-12-15T07:49:52;68.47;;;37.70;;
55314;SDS011;41619;42.816;23.226;2022-12-15T07:52:18;70.38;;;35.83;;
55314;SDS011;41619;42.816;23.226;2022-12-15T07:54:44;66.88;;;36.05;;
55314;SDS011;41619;42.816;23.226;2022-12-15T07:57:09;63.30;;;34.15;;
55314;SDS011;41619;42.816;23.226;2022-12-15T07:59:34;56.05;;;32.22;;
55314;SDS011;41619;42.816;23.226;2022-12-15T08:02:00;61.00;;;33.63;;
55314;SDS011;41619;42.816;23.226;2022-12-15T08:04:28;90.22;;;42.97;;
55314;SDS011;41619;42.816;23.226;2022-12-15T08:06:54;67.13;;;34.65;;
55314;SDS011;41619;42.816;23.226;2022-12-15T08:09:19;75.43;;;40.65;;
55314;SDS011;41619;42.816;23.226;2022-12-15T08:11:45;74.05;;;38.53;;
55314;SDS011;41619;42.816;23.226;2022-12-15T08:14:10;56.97;;;33.33;;
55314;SDS011;41619;42.816;23.226;2022-12-15T08:16:36;61.17;;;37.88;;
55314;SDS011;41619;42.816;23.226;2022-12-15T08:19:03;67.70;;;35.40;;
55314;SDS011;41619;42.816;23.226;2022-12-15T08:21:29;201.52;;;61.13;;
55314;SDS011;41619;42.816;23.226;2022-12-15T08:23:55;113.00;;;45.25;;
55314;SDS011;41619;42.816;23.226;2022-12-15T08:26:21;135.98;;;55.60;;
55314;SDS011;41619;42.816;23.226;2022-12-15T08:28:47;87.07;;;43.13;;
55314;SDS011;41619;42.816;23.226;2022-12-15T08:31:14;66.07;;;37.65;;
55314;SDS011;41619;42.816;23.226;2022-12-15T08:33:41;60.40;;;35.65;;
55314;SDS011;41619;42.816;23.226;2022-12-15T08:36:08;61.30;;;33.10;;
55314;SDS011;41619;42.816;23.226;2022-12-15T08:38:36;48.00;;;29.77;;
55314;SDS011;41619;42.816;23.226;2022-12-15T08:41:08;48.50;;;29.92;;
55314;SDS011;41619;42.816;23.226;2022-12-15T08:43:36;62.85;;;38.22;;
55314;SDS011;41619;42.816;23.226;2022-12-15T08:46:02;56.95;;;35.58;;
55314;SDS011;41619;42.816;23.226;2022-12-15T08:48:28;36.53;;;24.00;;
55314;SDS011;41619;42.816;23.226;2022-12-15T08:50:54;32.42;;;21.55;;
55314;SDS011;41619;42.816;23.226;2022-12-15T08:53:20;30.58;;;18.33;;
55314;SDS011;41619;42.816;23.226;2022-12-15T08:55:45;33.85;;;20.85;;
55314;SDS011;41619;42.816;23.226;2022-12-15T08:58:11;35.67;;;22.80;;
55314;SDS011;41619;42.816;23.226;2022-12-15T09:00:36;37.67;;;24.33;;
55314;SDS011;41619;42.816;23.226;2022-12-15T09:03:02;36.08;;;22.30;;
55314;SDS011;41619;42.816;23.226;2022-12-15T09:05:27;38.20;;;22.63;;
55314;SDS011;41619;42.816;23.226;2022-12-15T09:07:53;33.90;;;21.55;;
55314;SDS011;41619;42.816;23.226;2022-12-15T09:10:20;34.13;;;21.58;;
55314;SDS011;41619;42.816;23.226;2022-12-15T09:12:45;37.03;;;22.63;;
55314;SDS011;41619;42.816;23.226;2022-12-15T09:15:10;44.25;;;25.67;;
55314;SDS011;41619;42.816;23.226;2022-12-15T09:17:36;45.00;;;26.02;;
55314;SDS011;41619;42.816;23.226;2022-12-15T09:20:01;44.00;;;26.02;;
55314;SDS011;41619;42.816;23.226;2022-12-15T09:22:28;37.63;;;23.17;;
55314;SDS011;41619;42.816;23.226;2022-12-15T09:24:53;42.28;;;22.98;;
55314;SDS011;41619;42.816;23.226;2022-12-15T09:27:18;33.63;;;21.05;;
55314;SDS011;41619;42.816;23.226;2022-12-15T09:29:44;37.88;;;22.90;;
55314;SDS011;41619;42.816;23.226;2022-12-15T09:32:10;36.38;;;21.25;;
55314;SDS011;41619;42.816;23.226;2022-12-15T09:34:38;38.92;;;22.67;;
55314;SDS011;41619;42.816;23.226;2022-12-15T09:37:03;36.03;;;22.00;;
55314;SDS011;41619;42.816;23.226;2022-12-15T09:39:29;38.17;;;22.25;;
55314;SDS011;41619;42.816;23.226;2022-12-15T09:41:57;42.83;;;25.45;;
55314;SDS011;41619;42.816;23.226;2022-12-15T09:44:24;45.10;;;25.45;;
55314;SDS011;41619;42.816;23.226;2022-12-15T09:49:55;59.78;;;33.88;;
55314;SDS011;41619;42.816;23.226;2022-12-15T09:52:24;52.75;;;33.25;;
55314;SDS011;41619;42.816;23.226;2022-12-15T09:54:50;63.78;;;34.28;;
55314;SDS011;41619;42.816;23.226;2022-12-15T09:57:22;54.60;;;31.58;;
55314;SDS011;41619;42.816;23.226;2022-12-15T09:59:57;100.00;;;50.67;;
55314;SDS011;41619;42.816;23.226;2022-12-15T10:05:30;79.88;;;40.33;;
55314;SDS011;41619;42.816;23.226;2022-12-15T10:08:14;99.10;;;41.20;;
55314;SDS011;41619;42.816;23.226;2022-12-15T10:13:18;57.95;;;28.67;;
55314;SDS011;41619;42.816;23.226;2022-12-15T10:15:58;43.85;;;23.85;;
55314;SDS011;41619;42.816;23.226;2022-12-15T10:18:31;36.70;;;21.08;;
55314;SDS011;41619;42.816;23.226;2022-12-15T10:21:02;43.17;;;23.75;;
55314;SDS011;41619;42.816;23.226;2022-12-15T10:23:27;22.85;;;14.50;;
55314;SDS011;41619;42.816;23.226;2022-12-15T10:25:57;25.92;;;15.85;;
55314;SDS011;41619;42.816;23.226;2022-12-15T10:31:27;41.47;;;25.98;;
55314;SDS011;41619;42.816;23.226;2022-12-15T10:34:08;50.38;;;27.70;;
55314;SDS011;41619;42.816;23.226;2022-12-15T10:36:48;319.33;;;134.90;;
55314;SDS011;41619;42.816;23.226;2022-12-15T10:39:15;68.43;;;37.72;;
55314;SDS011;41619;42.816;23.226;2022-12-15T10:41:40;46.67;;;26.73;;
55314;SDS011;41619;42.816;23.226;2022-12-15T10:44:09;41.38;;;26.48;;
55314;SDS011;41619;42.816;23.226;2022-12-15T10:46:49;37.38;;;23.40;;
55314;SDS011;41619;42.816;23.226;2022-12-15T10:49:20;36.33;;;22.58;;
55314;SDS011;41619;42.816;23.226;2022-12-15T10:51:54;37.80;;;22.42;;
55314;SDS011;41619;42.816;23.226;2022-12-15T10:54:21;71.47;;;42.95;;
55314;SDS011;41619;42.816;23.226;2022-12-15T10:56:54;30.00;;;17.90;;
55314;SDS011;41619;42.816;23.226;2022-12-15T10:59:31;33.70;;;20.88;;
55314;SDS011;41619;42.816;23.226;2022-12-15T11:02:41;37.13;;;25.25;;
55314;SDS011;41619;42.816;23.226;2022-12-15T11:07:32;32.30;;;18.15;;
55314;SDS011;41619;42.816;23.226;2022-12-15T11:10:20;30.00;;;19.07;;
55314;SDS011;41619;42.816;23.226;2022-12-15T11:13:14;38.17;;;21.80;;
55314;SDS011;41619;42.816;23.226;2022-12-15T11:18:08;28.20;;;17.15;;
55314;SDS011;41619;42.816;23.226;2022-12-15T11:20:42;31.15;;;19.83;;
55314;SDS011;41619;42.816;23.226;2022-12-15T11:23:20;24.88;;;16.17;;
55314;SDS011;41619;42.816;23.226;2022-12-15T11:25:49;28.75;;;17.38;;
55314;SDS011;41619;42.816;23.226;2022-12-15T11:28:21;26.38;;;15.80;;
55314;SDS011;41619;42.816;23.226;2022-12-15T11:31:23;25.02;;;16.13;;
55314;SDS011;41619;42.816;23.226;2022-12-15T11:33:58;29.93;;;17.93;;
55314;SDS011;41619;42.816;23.226;2022-12-15T11:52:31;26.23;;;16.25;;
55314;SDS011;41619;42.816;23.226;2022-12-15T11:55:29;24.83;;;16.20;;
55314;SDS011;41619;42.816;23.226;2022-12-15T12:00:34;33.00;;;20.30;;
55314;SDS011;41619;42.816;23.226;2022-12-15T12:05:43;26.93;;;17.93;;
55314;SDS011;41619;42.816;23.226;2022-12-15T12:18:37;31.60;;;19.58;;
55314;SDS011;41619;42.816;23.226;2022-12-15T12:21:15;32.17;;;20.48;;
55314;SDS011;41619;42.816;23.226;2022-12-15T12:23:47;30.23;;;18.98;;
55314;SDS011;41619;42.816;23.226;2022-12-15T12:26:28;34.22;;;20.67;;
55314;SDS011;41619;42.816;23.226;2022-12-15T12:29:00;33.83;;;19.90;;
55314;SDS011;41619;42.816;23.226;2022-12-15T12:34:14;30.90;;;18.73;;
55314;SDS011;41619;42.816;23.226;2022-12-15T12:36:46;31.52;;;20.05;;
55314;SDS011;41619;42.816;23.226;2022-12-15T12:39:16;30.80;;;20.05;;
55314;SDS011;41619;42.816;23.226;2022-12-15T12:41:50;35.03;;;20.23;;
55314;SDS011;41619;42.816;23.226;2022-12-15T12:44:38;44.58;;;23.15;;
55314;SDS011;41619;42.816;23.226;2022-12-15T12:47:15;53.58;;;27.27;;
55314;SDS011;41619;42.816;23.226;2022-12-15T12:49:46;62.25;;;33.15;;
55314;SDS011;41619;42.816;23.226;2022-12-15T12:52:23;70.65;;;36.50;;
55314;SDS011;41619;42.816;23.226;2022-12-15T12:54:55;74.03;;;38.63;;
55314;SDS011;41619;42.816;23.226;2022-12-15T12:57:27;72.03;;;39.58;;
55314;SDS011;41619;42.816;23.226;2022-12-15T13:02:38;67.13;;;38.08;;
55314;SDS011;41619;42.816;23.226;2022-12-15T13:10:29;58.53;;;32.17;;
55314;SDS011;41619;42.816;23.226;2022-12-15T13:29:56;53.75;;;28.63;;
55314;SDS011;41619;42.816;23.226;2022-12-15T13:32:33;53.55;;;29.45;;
55314;SDS011;41619;42.816;23.226;2022-12-15T13:35:41;37.13;;;21.85;;
55314;SDS011;41619;42.816;23.226;2022-12-15T13:37:56;35.17;;;22.83;;
55314;SDS011;41619;42.816;23.226;2022-12-15T13:40:29;35.90;;;22.98;;
55314;SDS011;41619;42.816;23.226;2022-12-15T13:48:05;37.60;;;23.42;;
55314;SDS011;41619;42.816;23.226;2022-12-15T13:50:50;42.90;;;26.63;;
55314;SDS011;41619;42.816;23.226;2022-12-15T13:53:23;46.35;;;26.50;;
55314;SDS011;41619;42.816;23.226;2022-12-15T13:55:56;66.80;;;38.63;;
55314;SDS011;41619;42.816;23.226;2022-12-15T13:58:29;46.97;;;29.83;;
55314;SDS011;41619;42.816;23.226;2022-12-15T14:01:01;58.00;;;31.63;;
55314;SDS011;41619;42.816;23.226;2022-12-15T14:03:27;43.75;;;26.55;;
55314;SDS011;41619;42.816;23.226;2022-12-15T14:05:54;46.10;;;25.30;;
55314;SDS011;41619;42.816;23.226;2022-12-15T14:08:22;41.60;;;26.63;;
55314;SDS011;41619;42.816;23.226;2022-12-15T14:10:50;51.47;;;30.42;;
55314;SDS011;41619;42.816;23.226;2022-12-15T14:13:33;54.35;;;33.63;;
55314;SDS011;41619;42.816;23.226;2022-12-15T14:16:18;56.40;;;32.92;;
55314;SDS011;41619;42.816;23.226;2022-12-15T14:21:53;112.05;;;55.63;;
55314;SDS011;41619;42.816;23.226;2022-12-15T14:24:28;377.35;;;165.50;;
55314;SDS011;41619;42.816;23.226;2022-12-15T14:26:55;198.13;;;100.35;;
55314;SDS011;41619;42.816;23.226;2022-12-15T14:29:21;169.15;;;91.38;;
55314;SDS011;41619;42.816;23.226;2022-12-15T14:31:49;185.35;;;98.57;;
55314;SDS011;41619;42.816;23.226;2022-12-15T14:34:20;150.80;;;75.60;;
55314;SDS011;41619;42.816;23.226;2022-12-15T14:36:47;221.48;;;112.22;;
55314;SDS011;41619;42.816;23.226;2022-12-15T14:39:19;421.58;;;178.85;;
55314;SDS011;41619;42.816;23.226;2022-12-15T14:42:10;294.55;;;125.03;;
55314;SDS011;41619;42.816;23.226;2022-12-15T14:44:43;692.35;;;310.38;;
55314;SDS011;41619;42.816;23.226;2022-12-15T14:47:18;375.70;;;156.75;;
55314;SDS011;41619;42.816;23.226;2022-12-15T14:49:47;436.00;;;181.20;;
55314;SDS011;41619;42.816;23.226;2022-12-15T14:52:35;158.75;;;84.35;;
55314;SDS011;41619;42.816;23.226;2022-12-15T14:55:03;152.55;;;76.43;;
55314;SDS011;41619;42.816;23.226;2022-12-15T14:57:47;181.20;;;84.93;;
55314;SDS011;41619;42.816;23.226;2022-12-15T15:00:23;243.20;;;101.82;;
55314;SDS011;41619;42.816;23.226;2022-12-15T15:06:13;947.90;;;367.37;;
55314;SDS011;41619;42.816;23.226;2022-12-15T15:08:43;388.15;;;143.15;;
55314;SDS011;41619;42.816;23.226;2022-12-15T15:14:02;418.27;;;172.38;;
55314;SDS011;41619;42.816;23.226;2022-12-15T15:16:32;410.00;;;164.65;;
55314;SDS011;41619;42.816;23.226;2022-12-15T15:18:58;1103.72;;;451.80;;
55314;SDS011;41619;42.816;23.226;2022-12-15T15:24:00;384.45;;;161.38;;
55314;SDS011;41619;42.816;23.226;2022-12-15T15:26:31;282.80;;;125.55;;
55314;SDS011;41619;42.816;23.226;2022-12-15T15:28:57;957.63;;;376.25;;
55314;SDS011;41619;42.816;23.226;2022-12-15T15:31:26;304.90;;;134.60;;
55314;SDS011;41619;42.816;23.226;2022-12-15T15:33:54;525.53;;;196.93;;
55314;SDS011;41619;42.816;23.226;2022-12-15T15:36:22;268.08;;;121.53;;
55314;SDS011;41619;42.816;23.226;2022-12-15T15:38:52;270.98;;;122.30;;
55314;SDS011;41619;42.816;23.226;2022-12-15T15:43:45;428.92;;;174.52;;
55314;SDS011;41619;42.816;23.226;2022-12-15T15:46:18;491.25;;;224.88;;
55314;SDS011;41619;42.816;23.226;2022-12-15T15:48:49;361.55;;;161.75;;
55314;SDS011;41619;42.816;23.226;2022-12-15T15:51:18;246.15;;;121.97;;
55314;SDS011;41619;42.816;23.226;2022-12-15T15:53:44;220.30;;;111.43;;
55314;SDS011;41619;42.816;23.226;2022-12-15T15:56:11;230.65;;;114.40;;
55314;SDS011;41619;42.816;23.226;2022-12-15T15:58:39;172.73;;;92.25;;
55314;SDS011;41619;42.816;23.226;2022-12-15T16:01:06;180.98;;;91.65;;
55314;SDS011;41619;42.816;23.226;2022-12-15T16:03:32;175.95;;;96.88;;
55314;SDS011;41619;42.816;23.226;2022-12-15T16:05:59;207.38;;;101.93;;
55314;SDS011;41619;42.816;23.226;2022-12-15T16:08:26;213.05;;;101.75;;
55314;SDS011;41619;42.816;23.226;2022-12-15T16:10:56;365.73;;;137.00;;
55314;SDS011;41619;42.816;23.226;2022-12-15T16:13:21;166.20;;;86.28;;
55314;SDS011;41619;42.816;23.226;2022-12-15T16:15:47;261.80;;;112.32;;
55314;SDS011;41619;42.816;23.226;2022-12-15T16:18:13;322.52;;;129.15;;
55314;SDS011;41619;42.816;23.226;2022-12-15T16:20:39;261.67;;;117.10;;
55314;SDS011;41619;42.816;23.226;2022-12-15T16:23:09;274.02;;;116.43;;
55314;SDS011;41619;42.816;23.226;2022-12-15T16:25:38;315.60;;;137.15;;
55314;SDS011;41619;42.816;23.226;2022-12-15T16:28:13;300.67;;;136.30;;